sensor_id;sensor_type;location;lat;lon;timestamp;P1;durP1;ratioP1;P2;durP2;ratioP2
75537;SDS011;64121;48.666;8.114;2023-03-03T00:01:57;26.52;;;15.68;;
75537;SDS011;64121;48.666;8.114;2023-03-03T00:04:22;22.95;;;14.57;;
75537;SDS011;64121;48.666;8.114;2023-03-03T00:06:48;27.10;;;14.52;;
75537;SDS011;64121;48.666;8.114;2023-03-03T00:09:13;28.73;;;15.15;;
75537;SDS011;64121;48.666;8.114;2023-03-03T00:11:38;25.63;;;15.45;;
75537;SDS011;64121;48.666;8.114;2023-03-03T00:14:09;29.02;;;16.85;;
75537;SDS011;64121;48.666;8.114;2023-03-03T00:16:45;28.00;;;15.88;;
75537;SDS011;64121;48.666;8.114;2023-03-03T00:19:13;28.70;;;16.35;;
75537;SDS011;64121;48.666;8.114;2023-03-03T00:21:42;27.90;;;14.23;;
75537;SDS011;64121;48.666;8.114;2023-03-03T00:24:13;27.67;;;15.02;;
75537;SDS011;64121;48.666;8.114;2023-03-03T00:26:41;23.20;;;14.93;;
75537;SDS011;64121;48.666;8.114;2023-03-03T00:29:29;27.02;;;15.55;;
75537;SDS011;64121;48.666;8.114;2023-03-03T00:32:11;26.10;;;14.63;;
75537;SDS011;64121;48.666;8.114;2023-03-03T00:34:43;25.52;;;14.70;;
75537;SDS011;64121;48.666;8.114;2023-03-03T00:37:17;25.83;;;14.25;;
75537;SDS011;64121;48.666;8.114;2023-03-03T00:39:49;27.40;;;15.18;;
75537;SDS011;64121;48.666;8.114;2023-03-03T00:42:15;30.95;;;16.40;;
75537;SDS011;64121;48.666;8.114;2023-03-03T00:44:42;25.73;;;14.38;;
75537;SDS011;64121;48.666;8.114;2023-03-03T00:47:22;25.55;;;15.63;;
75537;SDS011;64121;48.666;8.114;2023-03-03T00:49:51;28.70;;;15.70;;
75537;SDS011;64121;48.666;8.114;2023-03-03T00:52:17;26.40;;;15.57;;
75537;SDS011;64121;48.666;8.114;2023-03-03T00:54:43;25.42;;;14.95;;
75537;SDS011;64121;48.666;8.114;2023-03-03T00:57:09;28.85;;;15.27;;
75537;SDS011;64121;48.666;8.114;2023-03-03T00:59:35;26.40;;;15.85;;
75537;SDS011;64121;48.666;8.114;2023-03-03T01:02:00;28.50;;;15.25;;
75537;SDS011;64121;48.666;8.114;2023-03-03T01:04:25;25.30;;;14.48;;
75537;SDS011;64121;48.666;8.114;2023-03-03T01:06:52;27.85;;;15.48;;
75537;SDS011;64121;48.666;8.114;2023-03-03T01:09:17;27.13;;;15.32;;
75537;SDS011;64121;48.666;8.114;2023-03-03T01:11:43;26.45;;;14.52;;
75537;SDS011;64121;48.666;8.114;2023-03-03T01:14:08;24.08;;;14.05;;
75537;SDS011;64121;48.666;8.114;2023-03-03T01:16:33;23.40;;;12.63;;
75537;SDS011;64121;48.666;8.114;2023-03-03T01:18:59;24.63;;;13.45;;
75537;SDS011;64121;48.666;8.114;2023-03-03T01:21:24;24.98;;;15.45;;
75537;SDS011;64121;48.666;8.114;2023-03-03T01:23:51;22.50;;;13.32;;
75537;SDS011;64121;48.666;8.114;2023-03-03T01:26:16;23.48;;;13.90;;
75537;SDS011;64121;48.666;8.114;2023-03-03T01:28:42;23.05;;;13.23;;
75537;SDS011;64121;48.666;8.114;2023-03-03T01:31:07;29.02;;;13.95;;
75537;SDS011;64121;48.666;8.114;2023-03-03T01:33:33;25.48;;;13.88;;
75537;SDS011;64121;48.666;8.114;2023-03-03T01:36:01;24.00;;;12.95;;
75537;SDS011;64121;48.666;8.114;2023-03-03T01:38:27;22.38;;;12.40;;
75537;SDS011;64121;48.666;8.114;2023-03-03T01:40:54;23.67;;;13.82;;
75537;SDS011;64121;48.666;8.114;2023-03-03T01:43:21;26.60;;;13.23;;
75537;SDS011;64121;48.666;8.114;2023-03-03T01:48:52;24.95;;;13.18;;
75537;SDS011;64121;48.666;8.114;2023-03-03T01:51:21;24.83;;;12.57;;
75537;SDS011;64121;48.666;8.114;2023-03-03T01:53:50;23.52;;;13.50;;
75537;SDS011;64121;48.666;8.114;2023-03-03T01:56:19;24.88;;;13.38;;
75537;SDS011;64121;48.666;8.114;2023-03-03T01:58:45;28.73;;;13.45;;
75537;SDS011;64121;48.666;8.114;2023-03-03T02:01:15;20.35;;;12.13;;
75537;SDS011;64121;48.666;8.114;2023-03-03T02:03:44;25.58;;;13.50;;
75537;SDS011;64121;48.666;8.114;2023-03-03T02:06:10;21.52;;;13.00;;
75537;SDS011;64121;48.666;8.114;2023-03-03T02:08:39;23.33;;;13.48;;
75537;SDS011;64121;48.666;8.114;2023-03-03T02:13:39;27.30;;;12.05;;
75537;SDS011;64121;48.666;8.114;2023-03-03T02:16:04;23.65;;;13.85;;
75537;SDS011;64121;48.666;8.114;2023-03-03T02:18:30;22.98;;;12.68;;
75537;SDS011;64121;48.666;8.114;2023-03-03T02:20:56;24.60;;;13.73;;
75537;SDS011;64121;48.666;8.114;2023-03-03T02:23:26;26.67;;;13.13;;
75537;SDS011;64121;48.666;8.114;2023-03-03T02:26:03;23.40;;;13.25;;
75537;SDS011;64121;48.666;8.114;2023-03-03T02:28:32;24.67;;;12.77;;
75537;SDS011;64121;48.666;8.114;2023-03-03T02:30:59;26.63;;;13.27;;
75537;SDS011;64121;48.666;8.114;2023-03-03T02:33:25;27.80;;;13.55;;
75537;SDS011;64121;48.666;8.114;2023-03-03T02:35:51;26.55;;;14.15;;
75537;SDS011;64121;48.666;8.114;2023-03-03T02:38:18;25.38;;;13.15;;
75537;SDS011;64121;48.666;8.114;2023-03-03T02:40:52;25.20;;;13.65;;
75537;SDS011;64121;48.666;8.114;2023-03-03T02:43:26;28.85;;;13.25;;
75537;SDS011;64121;48.666;8.114;2023-03-03T02:45:56;21.40;;;11.88;;
75537;SDS011;64121;48.666;8.114;2023-03-03T02:48:21;24.20;;;12.65;;
75537;SDS011;64121;48.666;8.114;2023-03-03T02:50:46;26.73;;;12.95;;
75537;SDS011;64121;48.666;8.114;2023-03-03T02:53:12;26.75;;;13.98;;
75537;SDS011;64121;48.666;8.114;2023-03-03T02:55:37;22.35;;;12.48;;
75537;SDS011;64121;48.666;8.114;2023-03-03T02:58:02;25.58;;;13.13;;
75537;SDS011;64121;48.666;8.114;2023-03-03T03:00:29;29.58;;;13.90;;
75537;SDS011;64121;48.666;8.114;2023-03-03T03:02:54;25.08;;;13.68;;
75537;SDS011;64121;48.666;8.114;2023-03-03T03:05:20;22.52;;;12.70;;
75537;SDS011;64121;48.666;8.114;2023-03-03T03:07:45;20.52;;;11.27;;
75537;SDS011;64121;48.666;8.114;2023-03-03T03:10:10;24.90;;;14.00;;
75537;SDS011;64121;48.666;8.114;2023-03-03T03:12:36;23.02;;;12.48;;
75537;SDS011;64121;48.666;8.114;2023-03-03T03:15:01;27.95;;;14.35;;
75537;SDS011;64121;48.666;8.114;2023-03-03T03:17:28;30.33;;;16.25;;
75537;SDS011;64121;48.666;8.114;2023-03-03T03:19:53;30.75;;;14.60;;
75537;SDS011;64121;48.666;8.114;2023-03-03T03:22:18;27.75;;;14.23;;
75537;SDS011;64121;48.666;8.114;2023-03-03T03:24:44;22.40;;;13.82;;
75537;SDS011;64121;48.666;8.114;2023-03-03T03:27:09;25.45;;;13.27;;
75537;SDS011;64121;48.666;8.114;2023-03-03T03:29:34;27.23;;;14.35;;
75537;SDS011;64121;48.666;8.114;2023-03-03T03:32:00;22.98;;;14.23;;
75537;SDS011;64121;48.666;8.114;2023-03-03T03:34:26;24.42;;;14.55;;
75537;SDS011;64121;48.666;8.114;2023-03-03T03:36:52;26.13;;;13.65;;
75537;SDS011;64121;48.666;8.114;2023-03-03T03:39:17;25.30;;;13.98;;
75537;SDS011;64121;48.666;8.114;2023-03-03T03:41:42;21.73;;;12.65;;
75537;SDS011;64121;48.666;8.114;2023-03-03T03:44:08;24.52;;;12.88;;
75537;SDS011;64121;48.666;8.114;2023-03-03T03:46:33;27.17;;;14.48;;
75537;SDS011;64121;48.666;8.114;2023-03-03T03:48:58;26.63;;;15.00;;
75537;SDS011;64121;48.666;8.114;2023-03-03T03:51:25;24.75;;;13.90;;
75537;SDS011;64121;48.666;8.114;2023-03-03T03:53:51;24.52;;;13.93;;
75537;SDS011;64121;48.666;8.114;2023-03-03T03:56:16;26.38;;;14.70;;
75537;SDS011;64121;48.666;8.114;2023-03-03T03:58:41;31.63;;;16.83;;
75537;SDS011;64121;48.666;8.114;2023-03-03T04:01:07;29.90;;;17.48;;
75537;SDS011;64121;48.666;8.114;2023-03-03T04:03:32;26.73;;;15.15;;
75537;SDS011;64121;48.666;8.114;2023-03-03T04:05:58;27.13;;;15.02;;
75537;SDS011;64121;48.666;8.114;2023-03-03T04:08:25;26.27;;;15.02;;
75537;SDS011;64121;48.666;8.114;2023-03-03T04:10:50;25.45;;;14.88;;
75537;SDS011;64121;48.666;8.114;2023-03-03T04:13:16;26.70;;;14.65;;
75537;SDS011;64121;48.666;8.114;2023-03-03T04:15:41;30.13;;;16.27;;
75537;SDS011;64121;48.666;8.114;2023-03-03T04:18:06;32.10;;;16.80;;
75537;SDS011;64121;48.666;8.114;2023-03-03T04:20:32;26.77;;;16.13;;
75537;SDS011;64121;48.666;8.114;2023-03-03T04:22:57;31.52;;;16.67;;
75537;SDS011;64121;48.666;8.114;2023-03-03T04:25:24;31.60;;;16.70;;
75537;SDS011;64121;48.666;8.114;2023-03-03T04:27:49;30.60;;;15.55;;
75537;SDS011;64121;48.666;8.114;2023-03-03T04:30:15;29.50;;;16.25;;
75537;SDS011;64121;48.666;8.114;2023-03-03T04:32:40;26.55;;;16.45;;
75537;SDS011;64121;48.666;8.114;2023-03-03T04:35:07;30.27;;;17.63;;
75537;SDS011;64121;48.666;8.114;2023-03-03T04:37:33;30.88;;;17.77;;
75537;SDS011;64121;48.666;8.114;2023-03-03T04:39:59;29.05;;;16.60;;
75537;SDS011;64121;48.666;8.114;2023-03-03T04:42:26;28.88;;;16.27;;
75537;SDS011;64121;48.666;8.114;2023-03-03T04:44:51;32.17;;;17.30;;
75537;SDS011;64121;48.666;8.114;2023-03-03T04:47:16;30.20;;;15.38;;
75537;SDS011;64121;48.666;8.114;2023-03-03T04:49:42;31.50;;;17.17;;
75537;SDS011;64121;48.666;8.114;2023-03-03T04:52:07;29.92;;;17.67;;
75537;SDS011;64121;48.666;8.114;2023-03-03T04:54:32;30.85;;;17.35;;
75537;SDS011;64121;48.666;8.114;2023-03-03T04:56:58;34.47;;;17.52;;
75537;SDS011;64121;48.666;8.114;2023-03-03T04:59:24;30.25;;;16.70;;
75537;SDS011;64121;48.666;8.114;2023-03-03T05:01:50;30.30;;;17.05;;
75537;SDS011;64121;48.666;8.114;2023-03-03T05:04:15;28.67;;;15.70;;
75537;SDS011;64121;48.666;8.114;2023-03-03T05:06:40;28.35;;;16.02;;
75537;SDS011;64121;48.666;8.114;2023-03-03T05:09:06;30.52;;;17.35;;
75537;SDS011;64121;48.666;8.114;2023-03-03T05:11:31;27.63;;;16.63;;
75537;SDS011;64121;48.666;8.114;2023-03-03T05:13:57;30.52;;;17.65;;
75537;SDS011;64121;48.666;8.114;2023-03-03T05:16:23;30.42;;;16.90;;
75537;SDS011;64121;48.666;8.114;2023-03-03T05:18:49;30.92;;;16.83;;
75537;SDS011;64121;48.666;8.114;2023-03-03T05:21:14;24.27;;;14.70;;
75537;SDS011;64121;48.666;8.114;2023-03-03T05:23:39;29.10;;;15.57;;
75537;SDS011;64121;48.666;8.114;2023-03-03T05:26:05;26.98;;;16.02;;
75537;SDS011;64121;48.666;8.114;2023-03-03T05:28:31;29.48;;;17.30;;
75537;SDS011;64121;48.666;8.114;2023-03-03T05:30:56;27.13;;;15.98;;
75537;SDS011;64121;48.666;8.114;2023-03-03T05:33:23;29.70;;;15.52;;
75537;SDS011;64121;48.666;8.114;2023-03-03T05:35:52;28.00;;;15.50;;
75537;SDS011;64121;48.666;8.114;2023-03-03T05:38:17;30.08;;;16.95;;
75537;SDS011;64121;48.666;8.114;2023-03-03T05:40:43;31.45;;;17.52;;
75537;SDS011;64121;48.666;8.114;2023-03-03T05:43:08;30.83;;;17.77;;
75537;SDS011;64121;48.666;8.114;2023-03-03T05:45:34;25.35;;;16.55;;
75537;SDS011;64121;48.666;8.114;2023-03-03T05:47:59;33.97;;;17.33;;
75537;SDS011;64121;48.666;8.114;2023-03-03T05:50:26;33.50;;;17.17;;
75537;SDS011;64121;48.666;8.114;2023-03-03T05:52:51;29.13;;;17.50;;
75537;SDS011;64121;48.666;8.114;2023-03-03T05:55:17;24.77;;;14.90;;
75537;SDS011;64121;48.666;8.114;2023-03-03T05:57:43;31.58;;;16.00;;
75537;SDS011;64121;48.666;8.114;2023-03-03T06:00:09;31.15;;;16.80;;
75537;SDS011;64121;48.666;8.114;2023-03-03T06:02:35;27.58;;;15.90;;
75537;SDS011;64121;48.666;8.114;2023-03-03T06:05:01;25.33;;;15.68;;
75537;SDS011;64121;48.666;8.114;2023-03-03T06:07:27;29.42;;;16.85;;
75537;SDS011;64121;48.666;8.114;2023-03-03T06:09:53;27.67;;;16.63;;
75537;SDS011;64121;48.666;8.114;2023-03-03T06:12:18;29.40;;;16.67;;
75537;SDS011;64121;48.666;8.114;2023-03-03T06:14:43;26.23;;;16.23;;
75537;SDS011;64121;48.666;8.114;2023-03-03T06:17:09;27.23;;;16.33;;
75537;SDS011;64121;48.666;8.114;2023-03-03T06:19:34;27.60;;;17.05;;
75537;SDS011;64121;48.666;8.114;2023-03-03T06:22:00;26.95;;;16.50;;
75537;SDS011;64121;48.666;8.114;2023-03-03T06:24:26;28.00;;;16.88;;
75537;SDS011;64121;48.666;8.114;2023-03-03T06:26:52;33.83;;;19.52;;
75537;SDS011;64121;48.666;8.114;2023-03-03T06:29:17;33.80;;;18.77;;
75537;SDS011;64121;48.666;8.114;2023-03-03T06:31:42;32.72;;;17.90;;
75537;SDS011;64121;48.666;8.114;2023-03-03T06:34:08;43.42;;;20.60;;
75537;SDS011;64121;48.666;8.114;2023-03-03T06:36:33;37.08;;;20.52;;
75537;SDS011;64121;48.666;8.114;2023-03-03T06:38:58;35.53;;;20.42;;
75537;SDS011;64121;48.666;8.114;2023-03-03T06:41:25;35.90;;;19.80;;
75537;SDS011;64121;48.666;8.114;2023-03-03T06:43:50;34.33;;;19.80;;
75537;SDS011;64121;48.666;8.114;2023-03-03T06:46:16;28.50;;;18.50;;
75537;SDS011;64121;48.666;8.114;2023-03-03T06:48:41;33.88;;;20.05;;
75537;SDS011;64121;48.666;8.114;2023-03-03T06:51:11;34.22;;;19.08;;
75537;SDS011;64121;48.666;8.114;2023-03-03T06:53:47;29.98;;;18.30;;
75537;SDS011;64121;48.666;8.114;2023-03-03T06:56:12;27.00;;;17.42;;
75537;SDS011;64121;48.666;8.114;2023-03-03T06:58:39;27.98;;;16.35;;
75537;SDS011;64121;48.666;8.114;2023-03-03T07:01:04;32.25;;;18.35;;
75537;SDS011;64121;48.666;8.114;2023-03-03T07:03:39;29.77;;;17.17;;
75537;SDS011;64121;48.666;8.114;2023-03-03T07:06:07;29.17;;;18.27;;
75537;SDS011;64121;48.666;8.114;2023-03-03T07:08:38;33.13;;;18.52;;
75537;SDS011;64121;48.666;8.114;2023-03-03T07:11:06;34.63;;;20.40;;
75537;SDS011;64121;48.666;8.114;2023-03-03T07:13:35;35.50;;;20.05;;
75537;SDS011;64121;48.666;8.114;2023-03-03T07:16:08;33.58;;;19.58;;
75537;SDS011;64121;48.666;8.114;2023-03-03T07:18:36;30.88;;;17.77;;
75537;SDS011;64121;48.666;8.114;2023-03-03T07:21:06;31.85;;;18.52;;
75537;SDS011;64121;48.666;8.114;2023-03-03T07:23:40;29.73;;;18.70;;
75537;SDS011;64121;48.666;8.114;2023-03-03T07:26:06;30.45;;;18.90;;
75537;SDS011;64121;48.666;8.114;2023-03-03T07:28:32;27.77;;;17.08;;
75537;SDS011;64121;48.666;8.114;2023-03-03T07:30:58;31.63;;;17.58;;
75537;SDS011;64121;48.666;8.114;2023-03-03T07:33:26;29.08;;;16.92;;
75537;SDS011;64121;48.666;8.114;2023-03-03T07:35:54;29.77;;;18.35;;
75537;SDS011;64121;48.666;8.114;2023-03-03T07:38:24;30.17;;;17.25;;
75537;SDS011;64121;48.666;8.114;2023-03-03T07:40:55;32.63;;;18.50;;
75537;SDS011;64121;48.666;8.114;2023-03-03T07:43:28;27.45;;;17.17;;
75537;SDS011;64121;48.666;8.114;2023-03-03T07:45:56;32.25;;;18.00;;
75537;SDS011;64121;48.666;8.114;2023-03-03T07:48:29;35.95;;;19.52;;
75537;SDS011;64121;48.666;8.114;2023-03-03T07:50:59;33.25;;;20.13;;
75537;SDS011;64121;48.666;8.114;2023-03-03T07:53:29;37.05;;;19.33;;
75537;SDS011;64121;48.666;8.114;2023-03-03T07:55:57;34.13;;;21.02;;
75537;SDS011;64121;48.666;8.114;2023-03-03T07:58:23;34.67;;;20.10;;
75537;SDS011;64121;48.666;8.114;2023-03-03T08:03:57;30.58;;;19.25;;
75537;SDS011;64121;48.666;8.114;2023-03-03T08:06:27;30.52;;;19.38;;
75537;SDS011;64121;48.666;8.114;2023-03-03T08:09:21;30.60;;;17.98;;
75537;SDS011;64121;48.666;8.114;2023-03-03T08:14:56;33.53;;;19.92;;
75537;SDS011;64121;48.666;8.114;2023-03-03T08:17:23;32.83;;;20.73;;
75537;SDS011;64121;48.666;8.114;2023-03-03T08:19:53;33.10;;;20.67;;
75537;SDS011;64121;48.666;8.114;2023-03-03T08:22:23;36.47;;;24.77;;
75537;SDS011;64121;48.666;8.114;2023-03-03T08:24:51;35.03;;;19.60;;
75537;SDS011;64121;48.666;8.114;2023-03-03T08:27:17;35.42;;;20.73;;
75537;SDS011;64121;48.666;8.114;2023-03-03T08:29:42;35.80;;;20.67;;
75537;SDS011;64121;48.666;8.114;2023-03-03T08:32:07;36.15;;;21.45;;
75537;SDS011;64121;48.666;8.114;2023-03-03T08:34:33;35.55;;;21.88;;
75537;SDS011;64121;48.666;8.114;2023-03-03T08:36:59;35.03;;;22.50;;
75537;SDS011;64121;48.666;8.114;2023-03-03T08:39:25;35.22;;;21.80;;
75537;SDS011;64121;48.666;8.114;2023-03-03T08:41:50;32.97;;;21.05;;
75537;SDS011;64121;48.666;8.114;2023-03-03T08:44:15;40.00;;;22.98;;
75537;SDS011;64121;48.666;8.114;2023-03-03T08:46:41;39.58;;;21.00;;
75537;SDS011;64121;48.666;8.114;2023-03-03T08:49:06;41.85;;;23.17;;
75537;SDS011;64121;48.666;8.114;2023-03-03T08:51:31;41.95;;;22.73;;
75537;SDS011;64121;48.666;8.114;2023-03-03T08:53:58;38.35;;;22.10;;
75537;SDS011;64121;48.666;8.114;2023-03-03T08:56:24;34.05;;;20.98;;
75537;SDS011;64121;48.666;8.114;2023-03-03T08:58:49;34.30;;;21.38;;
75537;SDS011;64121;48.666;8.114;2023-03-03T09:01:14;33.03;;;20.67;;
75537;SDS011;64121;48.666;8.114;2023-03-03T09:03:40;33.40;;;20.38;;
75537;SDS011;64121;48.666;8.114;2023-03-03T09:06:06;36.40;;;21.08;;
75537;SDS011;64121;48.666;8.114;2023-03-03T09:08:31;37.15;;;21.50;;
75537;SDS011;64121;48.666;8.114;2023-03-03T09:10:58;37.03;;;20.80;;
75537;SDS011;64121;48.666;8.114;2023-03-03T09:13:23;35.55;;;20.58;;
75537;SDS011;64121;48.666;8.114;2023-03-03T09:15:48;36.50;;;21.63;;
75537;SDS011;64121;48.666;8.114;2023-03-03T09:18:15;33.78;;;19.83;;
75537;SDS011;64121;48.666;8.114;2023-03-03T09:20:43;32.22;;;20.50;;
75537;SDS011;64121;48.666;8.114;2023-03-03T09:26:11;37.35;;;21.15;;
75537;SDS011;64121;48.666;8.114;2023-03-03T09:28:46;31.95;;;20.00;;
75537;SDS011;64121;48.666;8.114;2023-03-03T09:31:16;33.42;;;20.23;;
75537;SDS011;64121;48.666;8.114;2023-03-03T09:33:48;33.63;;;21.08;;
75537;SDS011;64121;48.666;8.114;2023-03-03T09:36:18;32.92;;;20.73;;
75537;SDS011;64121;48.666;8.114;2023-03-03T09:38:47;32.53;;;19.90;;
75537;SDS011;64121;48.666;8.114;2023-03-03T09:41:24;32.33;;;20.55;;
75537;SDS011;64121;48.666;8.114;2023-03-03T09:44:06;37.78;;;20.85;;
75537;SDS011;64121;48.666;8.114;2023-03-03T09:46:42;36.80;;;22.25;;
75537;SDS011;64121;48.666;8.114;2023-03-03T09:49:20;39.50;;;22.42;;
75537;SDS011;64121;48.666;8.114;2023-03-03T09:51:59;37.55;;;21.88;;
75537;SDS011;64121;48.666;8.114;2023-03-03T09:54:39;34.13;;;23.27;;
75537;SDS011;64121;48.666;8.114;2023-03-03T09:57:14;38.97;;;23.95;;
75537;SDS011;64121;48.666;8.114;2023-03-03T09:59:53;36.47;;;24.63;;
75537;SDS011;64121;48.666;8.114;2023-03-03T10:02:37;51.53;;;24.48;;
75537;SDS011;64121;48.666;8.114;2023-03-03T10:05:19;41.50;;;25.23;;
75537;SDS011;64121;48.666;8.114;2023-03-03T10:07:54;41.33;;;24.70;;
75537;SDS011;64121;48.666;8.114;2023-03-03T10:10:55;34.65;;;22.70;;
75537;SDS011;64121;48.666;8.114;2023-03-03T10:13:32;38.45;;;23.52;;
75537;SDS011;64121;48.666;8.114;2023-03-03T10:16:11;38.47;;;23.42;;
75537;SDS011;64121;48.666;8.114;2023-03-03T10:18:51;42.17;;;23.45;;
75537;SDS011;64121;48.666;8.114;2023-03-03T10:21:23;40.30;;;23.75;;
75537;SDS011;64121;48.666;8.114;2023-03-03T10:23:59;40.47;;;24.98;;
75537;SDS011;64121;48.666;8.114;2023-03-03T10:26:36;34.08;;;22.38;;
75537;SDS011;64121;48.666;8.114;2023-03-03T10:29:16;41.20;;;24.02;;
75537;SDS011;64121;48.666;8.114;2023-03-03T10:31:58;42.45;;;22.30;;
75537;SDS011;64121;48.666;8.114;2023-03-03T10:34:45;38.30;;;23.25;;
75537;SDS011;64121;48.666;8.114;2023-03-03T10:37:19;41.40;;;22.60;;
75537;SDS011;64121;48.666;8.114;2023-03-03T10:40:01;42.70;;;23.73;;
75537;SDS011;64121;48.666;8.114;2023-03-03T10:42:44;41.50;;;22.58;;
75537;SDS011;64121;48.666;8.114;2023-03-03T10:45:28;41.90;;;24.38;;
75537;SDS011;64121;48.666;8.114;2023-03-03T10:48:10;38.15;;;23.00;;
75537;SDS011;64121;48.666;8.114;2023-03-03T10:50:49;43.65;;;23.98;;
75537;SDS011;64121;48.666;8.114;2023-03-03T10:53:20;38.17;;;21.95;;
75537;SDS011;64121;48.666;8.114;2023-03-03T10:55:47;36.42;;;22.88;;
75537;SDS011;64121;48.666;8.114;2023-03-03T11:01:13;40.95;;;23.10;;
75537;SDS011;64121;48.666;8.114;2023-03-03T11:03:56;37.92;;;22.67;;
75537;SDS011;64121;48.666;8.114;2023-03-03T11:06:42;36.22;;;22.25;;
75537;SDS011;64121;48.666;8.114;2023-03-03T11:09:18;35.15;;;22.88;;
75537;SDS011;64121;48.666;8.114;2023-03-03T11:11:56;38.65;;;22.33;;
75537;SDS011;64121;48.666;8.114;2023-03-03T11:14:28;38.65;;;23.20;;
75537;SDS011;64121;48.666;8.114;2023-03-03T11:16:59;36.53;;;23.02;;
75537;SDS011;64121;48.666;8.114;2023-03-03T11:19:39;42.78;;;25.02;;
75537;SDS011;64121;48.666;8.114;2023-03-03T11:22:19;39.00;;;24.75;;
75537;SDS011;64121;48.666;8.114;2023-03-03T11:24:56;39.38;;;23.30;;
75537;SDS011;64121;48.666;8.114;2023-03-03T11:27:33;40.13;;;22.55;;
75537;SDS011;64121;48.666;8.114;2023-03-03T11:30:20;38.97;;;23.23;;
75537;SDS011;64121;48.666;8.114;2023-03-03T11:32:56;38.05;;;23.75;;
75537;SDS011;64121;48.666;8.114;2023-03-03T11:35:28;34.83;;;21.75;;
75537;SDS011;64121;48.666;8.114;2023-03-03T11:38:05;38.28;;;22.27;;
75537;SDS011;64121;48.666;8.114;2023-03-03T11:40:50;39.50;;;21.77;;
75537;SDS011;64121;48.666;8.114;2023-03-03T11:43:19;37.22;;;23.15;;
75537;SDS011;64121;48.666;8.114;2023-03-03T11:45:51;32.50;;;22.25;;
75537;SDS011;64121;48.666;8.114;2023-03-03T11:48:21;33.90;;;21.10;;
75537;SDS011;64121;48.666;8.114;2023-03-03T11:50:57;36.55;;;20.35;;
75537;SDS011;64121;48.666;8.114;2023-03-03T11:53:33;36.78;;;22.35;;
75537;SDS011;64121;48.666;8.114;2023-03-03T11:56:17;31.10;;;18.88;;
75537;SDS011;64121;48.666;8.114;2023-03-03T11:58:47;32.75;;;19.92;;
75537;SDS011;64121;48.666;8.114;2023-03-03T12:01:22;29.48;;;18.65;;
75537;SDS011;64121;48.666;8.114;2023-03-03T12:03:57;30.13;;;17.98;;
75537;SDS011;64121;48.666;8.114;2023-03-03T12:06:28;27.30;;;17.27;;
75537;SDS011;64121;48.666;8.114;2023-03-03T12:09:05;30.02;;;18.50;;
75537;SDS011;64121;48.666;8.114;2023-03-03T12:11:39;30.40;;;18.20;;
75537;SDS011;64121;48.666;8.114;2023-03-03T12:14:12;30.50;;;18.65;;
75537;SDS011;64121;48.666;8.114;2023-03-03T12:16:46;36.90;;;18.52;;
75537;SDS011;64121;48.666;8.114;2023-03-03T12:19:32;28.80;;;18.10;;
75537;SDS011;64121;48.666;8.114;2023-03-03T12:22:04;32.92;;;20.00;;
75537;SDS011;64121;48.666;8.114;2023-03-03T12:24:56;28.92;;;17.60;;
75537;SDS011;64121;48.666;8.114;2023-03-03T12:27:42;27.45;;;17.70;;
75537;SDS011;64121;48.666;8.114;2023-03-03T12:30:16;31.90;;;18.25;;
75537;SDS011;64121;48.666;8.114;2023-03-03T12:32:53;29.25;;;18.48;;
75537;SDS011;64121;48.666;8.114;2023-03-03T12:35:31;30.45;;;18.27;;
75537;SDS011;64121;48.666;8.114;2023-03-03T12:38:04;27.42;;;18.08;;
75537;SDS011;64121;48.666;8.114;2023-03-03T12:40:39;29.08;;;18.58;;
75537;SDS011;64121;48.666;8.114;2023-03-03T12:43:16;30.25;;;18.58;;
75537;SDS011;64121;48.666;8.114;2023-03-03T12:45:55;31.15;;;19.33;;
75537;SDS011;64121;48.666;8.114;2023-03-03T12:48:32;30.48;;;19.35;;
75537;SDS011;64121;48.666;8.114;2023-03-03T12:51:06;29.10;;;18.23;;
75537;SDS011;64121;48.666;8.114;2023-03-03T12:53:42;30.25;;;18.60;;
75537;SDS011;64121;48.666;8.114;2023-03-03T12:56:17;26.88;;;17.25;;
75537;SDS011;64121;48.666;8.114;2023-03-03T12:58:51;29.63;;;19.75;;
75537;SDS011;64121;48.666;8.114;2023-03-03T13:01:28;26.23;;;17.00;;
75537;SDS011;64121;48.666;8.114;2023-03-03T13:04:04;31.13;;;18.08;;
75537;SDS011;64121;48.666;8.114;2023-03-03T13:06:37;28.42;;;18.27;;
75537;SDS011;64121;48.666;8.114;2023-03-03T13:09:14;28.83;;;19.02;;
75537;SDS011;64121;48.666;8.114;2023-03-03T13:12:00;26.83;;;17.77;;
75537;SDS011;64121;48.666;8.114;2023-03-03T13:14:36;29.35;;;18.20;;
75537;SDS011;64121;48.666;8.114;2023-03-03T13:19:44;27.75;;;17.75;;
75537;SDS011;64121;48.666;8.114;2023-03-03T13:24:52;25.73;;;17.83;;
75537;SDS011;64121;48.666;8.114;2023-03-03T13:27:23;26.77;;;16.90;;
75537;SDS011;64121;48.666;8.114;2023-03-03T13:29:54;29.27;;;17.23;;
75537;SDS011;64121;48.666;8.114;2023-03-03T13:32:23;32.85;;;19.48;;
75537;SDS011;64121;48.666;8.114;2023-03-03T13:34:57;28.58;;;16.65;;
75537;SDS011;64121;48.666;8.114;2023-03-03T13:37:30;26.13;;;16.42;;
75537;SDS011;64121;48.666;8.114;2023-03-03T13:40:00;29.02;;;16.17;;
75537;SDS011;64121;48.666;8.114;2023-03-03T13:42:32;26.35;;;17.60;;
75537;SDS011;64121;48.666;8.114;2023-03-03T13:45:06;27.92;;;16.27;;
75537;SDS011;64121;48.666;8.114;2023-03-03T13:47:42;26.73;;;17.13;;
75537;SDS011;64121;48.666;8.114;2023-03-03T13:50:21;26.98;;;17.00;;
75537;SDS011;64121;48.666;8.114;2023-03-03T13:52:59;25.92;;;15.55;;
75537;SDS011;64121;48.666;8.114;2023-03-03T13:55:37;28.27;;;17.83;;
75537;SDS011;64121;48.666;8.114;2023-03-03T13:58:10;31.75;;;17.83;;
75537;SDS011;64121;48.666;8.114;2023-03-03T14:00:50;25.05;;;15.95;;
75537;SDS011;64121;48.666;8.114;2023-03-03T14:06:23;27.20;;;16.80;;
75537;SDS011;64121;48.666;8.114;2023-03-03T14:11:38;25.05;;;17.00;;
75537;SDS011;64121;48.666;8.114;2023-03-03T14:14:12;25.52;;;17.42;;
75537;SDS011;64121;48.666;8.114;2023-03-03T14:16:57;29.17;;;16.50;;
75537;SDS011;64121;48.666;8.114;2023-03-03T14:19:27;26.40;;;16.55;;
75537;SDS011;64121;48.666;8.114;2023-03-03T14:22:03;29.48;;;17.83;;
75537;SDS011;64121;48.666;8.114;2023-03-03T14:24:32;27.85;;;17.00;;
75537;SDS011;64121;48.666;8.114;2023-03-03T14:27:21;28.23;;;17.02;;
75537;SDS011;64121;48.666;8.114;2023-03-03T14:29:49;28.85;;;18.50;;
75537;SDS011;64121;48.666;8.114;2023-03-03T14:32:22;24.67;;;16.67;;
75537;SDS011;64121;48.666;8.114;2023-03-03T14:34:55;26.25;;;17.27;;
75537;SDS011;64121;48.666;8.114;2023-03-03T14:37:22;31.03;;;18.40;;
75537;SDS011;64121;48.666;8.114;2023-03-03T14:39:58;27.85;;;17.17;;
75537;SDS011;64121;48.666;8.114;2023-03-03T14:42:30;25.27;;;17.27;;
75537;SDS011;64121;48.666;8.114;2023-03-03T14:44:59;25.55;;;17.38;;
75537;SDS011;64121;48.666;8.114;2023-03-03T14:47:26;28.42;;;17.67;;
75537;SDS011;64121;48.666;8.114;2023-03-03T14:49:52;29.55;;;17.33;;
75537;SDS011;64121;48.666;8.114;2023-03-03T14:52:20;30.50;;;17.42;;
75537;SDS011;64121;48.666;8.114;2023-03-03T14:54:48;30.63;;;17.75;;
75537;SDS011;64121;48.666;8.114;2023-03-03T14:57:17;28.83;;;18.02;;
75537;SDS011;64121;48.666;8.114;2023-03-03T14:59:56;26.02;;;17.25;;
75537;SDS011;64121;48.666;8.114;2023-03-03T15:02:34;27.83;;;17.45;;
75537;SDS011;64121;48.666;8.114;2023-03-03T15:05:17;26.67;;;17.40;;
75537;SDS011;64121;48.666;8.114;2023-03-03T15:07:46;29.50;;;18.45;;